Pine Castle, Florida
Current Conditions -  °F | °C
As of 7:53 PM on Friday 28 Nov 2014 (Local Time) from KORL Reporting Station
Clear Clear  
Wind Chill: 53°   Ceiling: Unl
Heat Index: 53°   Visibility: 10mi
Dew Point: 42°   Wind: 8mph
Humidity: 66%   Direction: 360°N
Pressure: 30.29"   Gusts: NA
Location:  28.4877°N, 81.409°W
Report Text: KORL 290053Z 36007KT 10SM CLR 12/06 A3029 RMK AO2 SLP261 T01170056
Loading
Personal Weather Stations






























Interactive Weather Map New forecast layout! Learn more

10-Day Weather Forecast

Advertisements
Track Severe Weather on mobile